createdAt,value
2023-02-24T12:36:03.361Z,9.07
2023-02-24T12:38:48.232Z,9.09
2023-02-24T12:41:14.923Z,9.12
2023-02-24T12:43:54.942Z,9.15
2023-02-24T12:46:26.971Z,9.18
2023-02-24T12:48:53.630Z,9.25
2023-02-24T12:51:59.773Z,9.26
2023-02-24T12:54:46.168Z,9.17
2023-02-24T12:57:39.270Z,9.18
2023-02-24T13:00:13.656Z,9.08
2023-02-24T13:02:50.951Z,9.06
2023-02-24T13:05:59.012Z,9.11
2023-02-24T13:08:40.352Z,9.24
2023-02-24T13:11:25.222Z,9.29
2023-02-24T13:14:12.081Z,9.35
2023-02-24T13:16:38.815Z,9.33
2023-02-24T13:19:19.739Z,9.32
2023-02-24T13:22:03.642Z,9.37
2023-02-24T13:24:30.704Z,9.32
2023-02-24T13:27:17.858Z,9.33
2023-02-24T13:29:56.592Z,9.35
2023-02-24T13:32:36.919Z,9.33
2023-02-24T13:35:05.742Z,9.36
2023-02-24T13:37:40.975Z,9.38
2023-02-24T13:40:16.939Z,9.38
2023-02-24T13:42:57.271Z,9.38
2023-02-24T13:45:29.260Z,9.42
2023-02-24T13:48:10.905Z,9.44
2023-02-24T13:51:02.399Z,9.40
2023-02-24T13:54:04.420Z,9.31
2023-02-24T13:56:41.911Z,9.29
2023-02-24T13:59:17.946Z,9.30
2023-02-24T14:02:03.696Z,9.28
2023-02-24T14:04:33.317Z,9.25
2023-02-24T14:07:04.037Z,9.28
2023-02-24T14:09:43.158Z,9.23
2023-02-24T14:12:20.528Z,9.19
2023-02-24T14:14:49.005Z,9.22
2023-02-24T14:17:32.080Z,9.21
2023-02-24T14:20:19.939Z,9.44
2023-02-24T14:22:49.563Z,9.49
2023-02-24T14:25:17.964Z,9.49
2023-02-24T14:27:48.548Z,9.59
2023-02-24T14:30:39.697Z,9.67
2023-02-24T14:33:17.785Z,9.70
2023-02-24T14:35:47.959Z,9.71
2023-02-24T14:38:37.926Z,9.71
2023-02-24T14:41:07.282Z,9.78
2023-02-24T14:43:41.308Z,9.77
2023-02-24T14:46:08.096Z,9.72
2023-02-24T14:48:34.860Z,9.61
2023-02-24T14:51:12.308Z,9.55
2023-02-24T14:53:55.064Z,9.58
2023-02-24T14:56:28.041Z,9.54
2023-02-24T14:59:23.783Z,9.60
2023-02-24T15:01:54.861Z,9.63
2023-02-24T15:04:24.360Z,9.58
2023-02-24T15:06:51.363Z,9.63
2023-02-24T15:09:33.044Z,9.61
2023-02-24T15:12:10.210Z,9.67
2023-02-24T15:14:37.268Z,9.67
2023-02-24T15:17:16.894Z,9.68
2023-02-24T15:19:46.895Z,9.64
2023-02-24T15:22:28.387Z,9.70
2023-02-24T15:25:13.702Z,9.62
2023-02-24T15:28:00.103Z,9.55
2023-02-24T15:30:32.192Z,9.58
2023-02-24T15:33:05.644Z,9.62
2023-02-24T15:35:34.723Z,9.57
2023-02-24T15:38:02.583Z,9.54
2023-02-24T15:40:30.165Z,9.60
2023-02-24T15:42:58.636Z,9.54
2023-02-24T15:45:39.692Z,9.50
2023-02-24T15:48:31.341Z,9.52
2023-02-24T15:51:04.947Z,9.55
2023-02-24T15:53:31.708Z,9.57
2023-02-24T15:55:58.463Z,9.60
2023-02-24T15:58:25.616Z,9.52
2023-02-24T16:00:52.610Z,9.51
2023-02-24T16:03:19.584Z,9.45
2023-02-24T16:05:46.255Z,9.41
2023-02-24T16:08:18.824Z,9.43
2023-02-24T16:10:45.953Z,9.46
2023-02-24T16:13:20.899Z,9.48
2023-02-24T16:15:48.324Z,9.45
2023-02-24T16:18:22.765Z,9.42
2023-02-24T16:20:57.065Z,9.41
2023-02-24T16:23:26.872Z,9.39
2023-02-24T16:25:59.022Z,9.31
2023-02-24T16:28:26.648Z,9.34
2023-02-24T16:30:53.909Z,9.29
2023-02-24T16:33:23.549Z,9.36
2023-02-24T16:35:54.720Z,9.39
2023-02-24T16:38:26.457Z,9.34
2023-02-24T16:40:54.764Z,9.32
2023-02-24T16:43:21.430Z,9.23
2023-02-24T16:45:48.386Z,9.25
2023-02-24T16:48:26.530Z,9.26
2023-02-24T16:50:53.621Z,9.25
2023-02-24T16:53:22.745Z,9.22
2023-02-24T16:55:50.661Z,9.17
2023-02-24T16:58:18.071Z,9.17
2023-02-24T17:00:48.050Z,9.22
2023-02-24T17:03:17.478Z,9.23
2023-02-24T17:05:44.419Z,9.20
2023-02-24T17:08:11.525Z,9.19
2023-02-24T17:10:40.060Z,9.19
2023-02-24T17:13:07.059Z,9.18
2023-02-24T17:15:33.720Z,9.20
2023-02-24T17:18:00.530Z,9.17
2023-02-24T17:20:27.486Z,9.16
2023-02-24T17:22:54.412Z,9.13
2023-02-24T17:25:25.075Z,9.13
2023-02-24T17:27:52.880Z,9.12
2023-02-24T17:30:23.166Z,9.10
2023-02-24T17:32:50.269Z,9.11
2023-02-24T17:35:17.343Z,9.04
2023-02-24T17:37:44.154Z,9.05
2023-02-24T17:40:12.311Z,9.10
2023-02-24T17:42:39.510Z,9.08
2023-02-24T17:45:07.147Z,9.07
2023-02-24T17:47:34.528Z,9.11
2023-02-24T17:50:01.913Z,9.09
2023-02-24T17:52:29.500Z,8.99
2023-02-24T17:54:56.470Z,9.14
2023-02-24T17:57:23.556Z,9.21
2023-02-24T17:59:50.258Z,9.18
2023-02-24T18:02:18.293Z,9.20
2023-02-24T18:04:45.018Z,9.20
2023-02-24T18:07:12.621Z,9.21
2023-02-24T18:09:39.382Z,9.11
2023-02-24T18:12:06.875Z,9.14
2023-02-24T18:14:33.725Z,9.18
2023-02-24T18:17:00.466Z,9.13
2023-02-24T18:19:27.149Z,9.09
2023-02-24T18:21:53.958Z,9.10
2023-02-24T18:24:22.834Z,9.15
2023-02-24T18:26:49.930Z,9.05
2023-02-24T18:29:16.695Z,9.08
2023-02-24T18:31:43.704Z,9.09
2023-02-24T18:34:10.533Z,9.10
2023-02-24T18:36:37.256Z,9.13
2023-02-24T18:39:04.939Z,9.08
2023-02-24T18:41:32.502Z,9.04
2023-02-24T18:43:59.345Z,9.08
2023-02-24T18:46:27.068Z,9.09
2023-02-24T18:48:55.845Z,9.10
2023-02-24T18:51:23.605Z,9.07
2023-02-24T18:53:52.795Z,9.02
2023-02-24T18:56:23.660Z,9.04
2023-02-24T18:58:52.529Z,8.93
2023-02-24T19:01:22.481Z,9.00
2023-02-24T19:03:51.030Z,8.96
2023-02-24T19:06:19.440Z,8.91
2023-02-24T19:08:48.471Z,8.98
2023-02-24T19:11:17.628Z,9.00
2023-02-24T19:13:47.602Z,9.07
2023-02-24T19:16:15.802Z,9.11
2023-02-24T19:18:42.989Z,9.06
2023-02-24T19:21:11.016Z,9.06
2023-02-24T19:23:38.530Z,9.03
2023-02-24T19:26:07.194Z,8.98
2023-02-24T19:28:33.874Z,9.05
2023-02-24T19:31:00.664Z,9.05
2023-02-24T19:33:27.391Z,9.01
2023-02-24T19:35:59.567Z,9.01
2023-02-24T19:38:26.596Z,8.99
2023-02-24T19:40:53.286Z,8.97
2023-02-24T19:43:19.951Z,9.04
2023-02-24T19:45:46.797Z,9.04
2023-02-24T19:48:13.541Z,8.98
2023-02-24T19:50:41.544Z,9.03
2023-02-24T19:53:08.696Z,8.95
2023-02-24T19:55:35.451Z,8.99
2023-02-24T19:58:02.476Z,9.04
2023-02-24T20:00:30.226Z,9.04
2023-02-24T20:02:57.049Z,8.96
2023-02-24T20:05:25.138Z,8.95
2023-02-24T20:07:51.803Z,8.98
2023-02-24T20:10:18.455Z,8.99
2023-02-24T20:12:45.105Z,8.99
2023-02-24T20:15:11.951Z,8.93
2023-02-24T20:17:38.685Z,8.96
2023-02-24T20:20:05.909Z,8.98
2023-02-24T20:22:32.668Z,9.05
2023-02-24T20:24:59.304Z,9.01
2023-02-24T20:27:26.043Z,8.94
2023-02-24T20:29:55.832Z,8.90
2023-02-24T20:32:23.435Z,8.94
2023-02-24T20:34:50.462Z,8.95
2023-02-24T20:37:17.321Z,8.91
2023-02-24T20:39:44.195Z,8.89
2023-02-24T20:42:12.236Z,8.85
2023-02-24T20:44:38.852Z,8.87
2023-02-24T20:47:05.700Z,8.99
2023-02-24T20:49:32.857Z,9.02
2023-02-24T20:51:59.594Z,9.03
2023-02-24T20:54:26.507Z,8.96
2023-02-24T20:56:53.310Z,8.95
2023-02-24T20:59:22.161Z,8.93
2023-02-24T21:01:49.623Z,8.93
2023-02-24T21:04:18.926Z,8.93
2023-02-24T21:06:47.859Z,8.92
2023-02-24T21:09:15.468Z,8.91
2023-02-24T21:11:42.297Z,8.87
2023-02-24T21:14:16.623Z,8.89
2023-02-24T21:16:46.085Z,8.90
2023-02-24T21:19:12.970Z,8.89
2023-02-24T21:21:39.602Z,8.85
2023-02-24T21:24:06.647Z,8.88
2023-02-24T21:26:33.336Z,8.90
2023-02-24T21:28:59.931Z,8.93
2023-02-24T21:31:27.264Z,8.93
2023-02-24T21:33:54.685Z,8.92
2023-02-24T21:36:25.604Z,8.89
2023-02-24T21:38:53.142Z,8.93
2023-02-24T21:41:20.059Z,8.95
2023-02-24T21:43:47.358Z,8.98
2023-02-24T21:46:15.920Z,8.99
2023-02-24T21:48:43.301Z,8.98
2023-02-24T21:51:12.674Z,8.99
2023-02-24T21:53:43.528Z,8.95
2023-02-24T21:56:16.709Z,8.93
2023-02-24T21:58:46.151Z,8.91
2023-02-24T22:01:19.629Z,8.88
2023-02-24T22:03:46.813Z,8.86
2023-02-24T22:06:14.982Z,8.85
2023-02-24T22:08:45.657Z,8.85
2023-02-24T22:11:17.345Z,8.88
2023-02-24T22:13:45.211Z,8.92
2023-02-24T22:16:19.281Z,8.91
2023-02-24T22:18:49.140Z,8.96
2023-02-24T22:21:18.603Z,8.87
2023-02-24T22:23:47.660Z,8.82
2023-02-24T22:26:16.745Z,8.84
2023-02-24T22:28:45.189Z,8.84
2023-02-24T22:31:13.709Z,8.79
2023-02-24T22:33:42.485Z,8.83
2023-02-24T22:36:15.256Z,8.87
2023-02-24T22:38:43.019Z,8.89
2023-02-24T22:41:13.358Z,8.77
2023-02-24T22:43:40.082Z,8.69
2023-02-24T22:46:10.906Z,8.65
2023-02-24T22:48:38.183Z,8.64
2023-02-24T22:51:07.887Z,8.67
2023-02-24T22:53:37.402Z,8.58
2023-02-24T22:56:04.218Z,8.52
2023-02-24T22:58:32.263Z,8.49
2023-02-24T23:00:59.806Z,8.48
2023-02-24T23:03:30.974Z,8.50
2023-02-24T23:06:04.043Z,8.52
2023-02-24T23:08:32.514Z,8.61
2023-02-24T23:11:19.092Z,8.65
2023-02-24T23:13:48.466Z,8.64
2023-02-24T23:16:18.586Z,8.60
2023-02-24T23:18:48.696Z,8.55
2023-02-24T23:21:16.265Z,8.53
2023-02-24T23:23:44.469Z,8.57
2023-02-24T23:26:14.133Z,8.55
2023-02-24T23:28:40.850Z,8.49
2023-02-24T23:31:07.667Z,8.51
2023-02-24T23:33:34.564Z,8.54
2023-02-24T23:36:06.818Z,8.50
2023-02-24T23:38:34.301Z,8.43
2023-02-24T23:41:00.960Z,8.46
2023-02-24T23:43:27.584Z,8.41
2023-02-24T23:45:54.273Z,8.46
2023-02-24T23:48:21.227Z,8.33
2023-02-24T23:50:47.909Z,8.10
2023-02-24T23:53:14.863Z,8.21
2023-02-24T23:55:41.456Z,8.03
2023-02-24T23:58:08.516Z,8.04
